Time;durP1;ratioP1;P1;durP2;ratioP2;P2;SDS_P1;SDS_P2;PMS_P1;PMS_P2;Temp;Humidity;BMP_temperature;BMP_pressure;BME280_temperature;BME280_humidity;BME280_pressure;Samples;Min_cycle;Max_cycle;Signal;HPM_P1;HPM_P2
2023/01/05 00:01:38;;;;;;;1.83;0.60;;;9.30;99.90;;;9.19;100.00;98076.75;5022945;28;20037;-66
2023/01/05 00:04:06;;;;;;;0.60;0.40;;;9.30;99.90;;;9.12;100.00;98089.91;5005834;28;20088;-66
2023/01/05 00:06:33;;;;;;;0.85;0.40;;;9.30;99.90;;;9.20;100.00;98091.38;5005044;28;20042;-65
2023/01/05 00:09:00;;;;;;;1.02;0.50;;;9.30;99.90;;;9.22;100.00;98081.00;5006365;28;20049;-65
2023/01/05 00:22:52;;;;;;;0.50;0.43;;;9.50;99.90;;;9.28;100.00;98041.09;5011929;28;20044;-64
2023/01/05 00:25:28;;;;;;;0.57;0.40;;;9.40;99.90;;;9.37;100.00;98040.81;5002824;28;20054;-64
2023/01/05 00:27:57;;;;;;;0.73;0.30;;;9.50;99.90;;;9.36;100.00;98037.38;5012657;28;20099;-64
2023/01/05 00:30:29;;;;;;;0.85;0.40;;;9.40;99.90;;;9.35;100.00;98045.19;5006842;28;20089;-64
2023/01/05 00:32:56;;;;;;;7.03;0.50;;;9.50;99.90;;;9.40;100.00;98053.69;5004237;28;20054;-65
2023/01/05 00:35:23;;;;;;;2.28;0.60;;;9.50;99.90;;;9.56;100.00;98064.44;5002454;28;20468;-64
2023/01/05 00:37:51;;;;;;;0.98;0.50;;;9.50;99.90;;;9.54;100.00;98064.47;5005518;28;20049;-65
2023/01/05 00:40:20;;;;;;;1.10;0.52;;;9.60;99.90;;;9.69;100.00;98036.38;5005115;28;20077;-65
2023/01/05 00:42:47;;;;;;;2.00;0.60;;;9.60;99.90;;;9.65;100.00;98030.47;5001664;28;20057;-64
2023/01/05 00:45:17;;;;;;;1.08;0.70;;;9.70;99.90;;;9.75;100.00;98037.03;5001990;28;20101;-64
2023/01/05 00:47:44;;;;;;;1.55;0.98;;;9.70;99.90;;;9.81;100.00;98056.75;5007763;28;20080;-65
2023/01/05 00:50:17;;;;;;;2.80;0.73;;;9.80;99.90;;;9.86;100.00;98036.72;5011004;28;20128;-65
2023/01/05 00:52:44;;;;;;;1.20;0.73;;;9.90;99.90;;;9.96;100.00;98032.06;5010307;28;20050;-65
2023/01/05 00:55:12;;;;;;;1.63;0.90;;;9.90;99.90;;;9.94;100.00;98016.53;5011690;28;20052;-65
2023/01/05 00:57:40;;;;;;;1.00;0.60;;;9.90;99.90;;;9.98;100.00;98007.78;5006722;28;20046;-64
2023/01/05 01:00:13;;;;;;;1.67;0.90;;;10.00;99.90;;;9.99;100.00;97999.09;5005722;28;20176;-65
2023/01/05 01:02:40;;;;;;;;;;;9.90;99.90;;;9.95;100.00;98018.25;5017174;28;20057;-65
2023/01/05 01:05:07;;;;;;;1.38;0.90;;;10.00;99.90;;;10.00;100.00;98015.50;5007378;28;19928;-65
2023/01/05 01:07:34;;;;;;;1.40;0.98;;;10.00;99.90;;;10.01;100.00;98020.66;5008332;28;20050;-65
2023/01/05 01:10:01;;;;;;;1.67;0.70;;;10.00;99.90;;;9.99;100.00;98000.81;5006023;28;20046;-64
2023/01/05 01:12:28;;;;;;;2.95;0.70;;;9.90;99.90;;;9.95;100.00;98010.47;5012105;28;20050;-65
2023/01/05 01:14:55;;;;;;;1.08;0.70;;;10.00;99.90;;;9.94;100.00;98015.69;5005073;28;20419;-65
2023/01/05 01:17:22;;;;;;;1.38;0.63;;;10.00;99.90;;;9.98;100.00;98020.72;5007414;28;20133;-65
2023/01/05 01:19:49;;;;;;;1.25;0.85;;;10.00;99.90;;;9.96;100.00;98024.28;5009330;28;20042;-65
2023/01/05 01:22:16;;;;;;;1.80;0.75;;;10.10;99.90;;;10.08;100.00;98015.25;5011195;28;20131;-65
2023/01/05 01:24:43;;;;;;;1.08;0.60;;;10.00;99.90;;;10.04;100.00;98009.31;5014660;28;20056;-65
2023/01/05 01:27:11;;;;;;;0.90;0.70;;;10.00;99.90;;;9.91;100.00;98003.69;5009247;28;20141;-65
2023/01/05 01:29:38;;;;;;;1.35;0.60;;;10.00;99.90;;;9.94;100.00;98028.66;5008083;28;20046;-65
2023/01/05 01:32:05;;;;;;;1.33;0.60;;;10.00;99.90;;;9.73;100.00;98018.09;5010610;28;20094;-65
2023/01/05 01:34:32;;;;;;;3.10;0.50;;;10.00;99.90;;;9.80;100.00;98034.31;5009655;28;20092;-65
2023/01/05 01:36:59;;;;;;;0.80;0.50;;;10.00;99.90;;;9.74;100.00;98040.53;5013304;28;20431;-65
2023/01/05 01:39:26;;;;;;;1.40;0.50;;;10.00;99.90;;;9.75;100.00;98024.06;5010983;28;20420;-65
2023/01/05 01:41:53;;;;;;;0.80;0.52;;;10.10;99.90;;;9.73;100.00;98030.22;5010490;28;20152;-65
2023/01/05 01:44:55;;;;;;;0.70;0.50;;;10.10;99.90;;;9.68;100.00;98027.78;5008964;28;20064;-64
2023/01/05 01:47:38;;;;;;;0.88;0.50;;;10.00;99.90;;;9.84;100.00;98017.75;5013058;28;20132;-65
2023/01/05 01:50:17;;;;;;;1.00;0.43;;;10.00;99.90;;;9.67;100.00;98026.09;5006432;28;20128;-65
2023/01/05 01:52:48;;;;;;;0.88;0.40;;;10.00;99.90;;;9.69;100.00;98016.50;5007019;28;20132;-65
2023/01/05 01:55:16;;;;;;;0.52;0.40;;;10.00;99.90;;;9.69;100.00;98023.44;5011008;28;20068;-64
2023/01/05 01:57:44;;;;;;;2.28;0.45;;;10.00;99.90;;;9.75;100.00;98034.44;5003184;28;20137;-65
2023/01/05 02:00:13;;;;;;;0.30;0.30;;;10.10;99.90;;;9.88;100.00;98034.06;5006429;28;20086;-65
2023/01/05 02:02:40;;;;;;;0.50;0.40;;;10.10;99.90;;;9.96;100.00;98034.66;5024760;28;20077;-65
2023/01/05 02:05:10;;;;;;;1.00;0.47;;;10.10;99.90;;;9.96;100.00;98034.66;5009756;28;20049;-65
2023/01/05 02:07:44;;;;;;;0.70;0.28;;;10.10;99.90;;;10.07;100.00;98024.78;5007452;28;20125;-65
2023/01/05 02:10:15;;;;;;;0.60;0.40;;;10.20;99.90;;;10.15;100.00;98029.69;5007654;28;20123;-64
2023/01/05 02:13:06;;;;;;;1.40;0.30;;;10.30;99.90;;;10.20;100.00;98023.47;5012477;28;20054;-65
2023/01/05 02:16:11;;;;;;;1.15;0.50;;;10.30;99.90;;;10.24;100.00;98034.56;5009479;28;20041;-65
2023/01/05 02:19:31;;;;;;;1.50;0.40;;;10.30;99.90;;;10.20;100.00;98031.25;5007722;28;20533;-65
2023/01/05 02:22:32;;;;;;;2.80;0.50;;;10.30;99.90;;;10.15;100.00;98033.16;5008655;28;20050;-65
2023/01/05 02:25:24;;;;;;;2.25;0.40;;;10.40;99.90;;;10.21;100.00;98025.16;5004794;28;20631;-65
2023/01/05 02:28:03;;;;;;;1.65;0.50;;;10.40;99.90;;;10.18;100.00;98063.34;4983046;28;20050;-65
2023/01/05 02:31:01;;;;;;;2.65;0.40;;;10.40;99.90;;;10.22;100.00;98068.38;5009069;28;20185;-65
2023/01/05 02:33:54;;;;;;;1.48;0.45;;;10.40;99.90;;;10.22;100.00;98058.00;5008834;28;20054;-65
2023/01/05 02:36:33;;;;;;;2.90;0.50;;;10.40;99.90;;;10.22;100.00;98063.19;5014284;28;20048;-65
2023/01/05 02:39:16;;;;;;;1.17;0.38;;;10.40;99.90;;;10.24;100.00;98070.88;5017111;28;20053;-66
2023/01/05 02:42:21;;;;;;;1.10;0.30;;;10.40;99.90;;;10.18;100.00;98058.97;5011450;28;20093;-66
2023/01/05 02:44:48;;;;;;;1.23;0.40;;;10.50;99.90;;;10.23;100.00;98080.44;5010707;28;20172;-66
2023/01/05 02:47:26;;;;;;;1.38;0.30;;;10.50;99.90;;;10.22;100.00;98080.50;5013614;28;20041;-65
2023/01/05 02:50:20;;;;;;;1.67;0.30;;;10.40;99.90;;;10.11;100.00;98069.63;5016127;28;20058;-66
2023/01/05 02:53:18;;;;;;;1.48;0.30;;;10.40;99.90;;;10.11;100.00;98059.25;5010577;28;20529;-66
2023/01/05 02:55:51;;;;;;;0.75;0.30;;;10.30;99.90;;;10.10;100.00;98045.41;5013272;28;20085;-65
2023/01/05 02:58:45;;;;;;;6.00;0.60;;;10.30;99.90;;;10.02;100.00;98050.03;5009002;28;20048;-65
2023/01/05 03:01:19;;;;;;;4.13;0.68;;;10.20;99.90;;;9.97;100.00;98065.72;5009765;28;20041;-65
2023/01/05 03:04:05;;;;;;;2.83;0.40;;;10.20;99.90;;;10.07;100.00;98061.09;4989815;28;20046;-64
2023/01/05 03:06:45;;;;;;;5.00;0.50;;;10.30;99.90;;;10.07;100.00;98058.50;5008966;28;20050;-65
2023/01/05 03:09:18;;;;;;;3.90;0.60;;;10.20;99.90;;;10.08;100.00;98070.59;5014959;28;20415;-65
2023/01/05 03:14:57;;;;;;;2.67;0.50;;;10.10;99.90;;;10.10;100.00;98066.16;5014729;28;20061;-63
2023/01/05 03:17:43;;;;;;;4.13;0.65;;;10.10;99.90;;;10.24;100.00;98063.97;5009940;28;20050;-64
2023/01/05 03:20:13;;;;;;;6.03;1.00;;;10.10;99.90;;;10.15;100.00;98063.41;5013229;28;20072;-65
2023/01/05 03:37:38;;;;;;;12.20;1.35;;;9.80;99.90;;;9.56;100.00;98070.47;5013401;28;20046;-65
2023/01/05 03:40:16;;;;;;;18.30;2.10;;;9.70;99.90;;;9.38;100.00;98079.66;4986130;28;20050;-65
2023/01/05 03:42:43;;;;;;;22.38;2.85;;;9.60;99.90;;;9.38;100.00;98076.22;5009553;28;20042;-64
2023/01/05 03:45:12;;;;;;;14.27;1.77;;;9.60;99.90;;;9.20;100.00;98057.72;5009158;28;20060;-64
2023/01/05 03:47:39;;;;;;;13.15;2.20;;;9.40;99.90;;;9.17;100.00;98075.94;5009854;28;20049;-65
2023/01/05 03:50:07;;;;;;;12.48;1.83;;;9.40;99.90;;;9.14;100.00;98064.81;5018348;28;20045;-65
2023/01/05 03:52:34;;;;;;;18.17;2.42;;;9.40;99.90;;;9.10;100.00;98056.31;5010732;28;20129;-65
2023/01/05 03:55:01;;;;;;;14.93;1.85;;;9.40;99.90;;;9.00;100.00;98057.44;5013950;28;20049;-65
2023/01/05 03:57:28;;;;;;;16.77;2.40;;;9.30;99.90;;;9.08;100.00;98021.84;5015547;28;20084;-64
2023/01/05 03:59:55;;;;;;;16.20;2.50;;;9.40;99.90;;;9.04;100.00;97999.50;5011098;28;20424;-64
2023/01/05 04:02:22;;;;;;;15.98;2.17;;;9.30;99.90;;;8.96;100.00;97976.44;5013977;28;20049;-65
2023/01/05 04:04:49;;;;;;;15.95;2.17;;;9.40;99.90;;;9.02;100.00;97967.63;5008843;28;20060;-65
2023/01/05 04:07:16;;;;;;;14.70;2.25;;;9.40;99.90;;;9.07;100.00;97957.13;5008233;28;20065;-65
2023/01/05 04:09:43;;;;;;;16.58;2.38;;;9.40;99.90;;;9.11;100.00;97961.31;5011532;28;20057;-65
2023/01/05 04:12:10;;;;;;;18.67;3.47;;;9.40;99.90;;;9.12;100.00;97935.41;5010359;28;20050;-64
2023/01/05 04:14:37;;;;;;;17.23;2.35;;;9.40;99.90;;;9.14;100.00;97927.56;5013498;28;20092;-65
2023/01/05 04:17:03;;;;;;;20.00;2.22;;;9.40;99.90;;;9.19;100.00;97936.03;5013001;28;20156;-65
2023/01/05 04:19:30;;;;;;;15.68;2.38;;;9.40;99.90;;;9.12;100.00;97937.97;5010545;28;20068;-65
2023/01/05 04:21:57;;;;;;;17.13;2.40;;;9.30;99.90;;;9.11;100.00;97925.91;5012765;28;20054;-65
2023/01/05 04:24:24;;;;;;;19.05;2.88;;;9.40;99.90;;;9.25;100.00;97940.19;5008905;28;20084;-64
2023/01/05 04:26:51;;;;;;;17.30;2.17;;;9.40;99.90;;;9.07;100.00;97929.47;5012547;28;20089;-64
2023/01/05 04:29:18;;;;;;;15.82;1.77;;;9.40;99.90;;;9.15;100.00;97937.88;5013567;28;20432;-65
2023/01/05 04:31:45;;;;;;;15.10;1.98;;;9.40;99.90;;;9.13;100.00;97952.63;5016169;28;20061;-65
2023/01/05 04:34:12;;;;;;;18.48;2.92;;;9.40;99.90;;;9.31;100.00;97948.59;5011851;28;20155;-65
2023/01/05 04:36:39;;;;;;;15.02;2.42;;;9.50;99.90;;;9.18;100.00;97950.72;5012335;28;20052;-65
2023/01/05 04:39:06;;;;;;;21.23;2.72;;;9.40;99.90;;;9.15;100.00;97960.34;5009577;28;20054;-64
2023/01/05 04:41:33;;;;;;;18.48;3.60;;;9.40;99.90;;;9.25;100.00;97953.97;5008859;28;20049;-65
2023/01/05 04:44:00;;;;;;;16.42;2.10;;;9.50;99.90;;;9.19;100.00;97978.34;5012593;28;20049;-65
2023/01/05 04:46:27;;;;;;;13.98;2.22;;;9.50;99.90;;;9.16;100.00;97952.50;5009818;28;20144;-64
2023/01/05 04:48:54;;;;;;;15.63;2.40;;;9.50;99.90;;;9.16;100.00;97993.94;5011464;28;20655;-64
2023/01/05 04:51:22;;;;;;;15.90;2.92;;;9.50;99.90;;;9.26;100.00;97976.41;5010044;28;20045;-64
2023/01/05 04:53:49;;;;;;;15.07;2.60;;;9.60;99.90;;;9.21;100.00;97986.91;5013891;28;20156;-64
2023/01/05 04:56:16;;;;;;;19.25;2.95;;;9.50;99.90;;;9.20;100.00;97977.44;5014184;28;20780;-64
2023/01/05 04:58:43;;;;;;;11.82;2.00;;;9.60;99.90;;;9.11;100.00;97980.28;5012583;28;20151;-64
2023/01/05 05:01:10;;;;;;;19.38;1.95;;;9.60;99.90;;;9.15;100.00;97979.31;5011479;28;20045;-65
2023/01/05 05:03:37;;;;;;;15.23;2.10;;;9.60;99.90;;;9.20;100.00;97981.75;5013082;28;20108;-65
2023/01/05 05:06:05;;;;;;;20.63;2.83;;;9.60;99.90;;;9.13;100.00;97985.44;5012655;28;20483;-65
2023/01/05 05:08:32;;;;;;;18.27;2.53;;;9.60;99.90;;;9.08;100.00;97989.91;5014875;28;20057;-65
2023/01/05 05:10:59;;;;;;;20.67;3.08;;;9.60;99.90;;;9.15;100.00;97997.44;5016782;28;20049;-65
2023/01/05 05:13:26;;;;;;;18.13;3.08;;;9.60;99.90;;;9.08;100.00;97989.91;5015556;28;20059;-64
2023/01/05 05:15:53;;;;;;;18.95;2.35;;;9.60;99.90;;;9.16;100.00;97996.53;5014191;28;20085;-65
2023/01/05 05:18:21;;;;;;;16.05;2.25;;;9.40;99.90;;;9.05;100.00;97997.75;5017449;28;20053;-64
2023/01/05 05:20:51;;;;;;;18.23;2.67;;;9.40;99.90;;;9.09;100.00;97994.19;5011824;28;20049;-64
2023/01/05 05:23:18;;;;;;;15.43;2.75;;;9.50;99.90;;;9.08;100.00;98000.28;5011469;28;20442;-64
2023/01/05 05:25:50;;;;;;;13.18;2.58;;;9.60;99.90;;;9.03;100.00;98002.97;5007200;28;20078;-64
2023/01/05 05:28:18;;;;;;;15.07;2.30;;;9.60;99.90;;;9.08;100.00;98000.28;5012806;28;20049;-64
2023/01/05 05:30:48;;;;;;;22.98;2.42;;;9.70;99.90;;;9.13;100.00;98004.41;5012985;28;20050;-64
2023/01/05 05:33:15;;;;;;;19.17;2.42;;;9.60;99.90;;;9.10;100.00;98014.00;5007359;28;20046;-65
2023/01/05 05:35:42;;;;;;;22.05;2.63;;;9.60;99.90;;;9.15;100.00;98004.38;5004629;28;20489;-64
2023/01/05 05:38:09;;;;;;;20.38;2.47;;;9.60;99.90;;;9.28;100.00;98010.00;5014190;28;20053;-65
2023/01/05 05:40:36;;;;;;;17.42;2.55;;;9.60;99.90;;;9.31;100.00;98012.53;5008089;28;20061;-64
2023/01/05 05:43:03;;;;;;;17.50;2.35;;;9.60;99.90;;;9.16;100.00;98019.00;5004706;28;20050;-65
2023/01/05 05:45:30;;;;;;;17.25;2.35;;;9.60;99.90;;;9.25;100.00;98012.72;5010096;28;20082;-65
2023/01/05 05:47:57;;;;;;;18.40;2.92;;;9.70;99.90;;;9.27;100.00;98019.53;5011254;28;20080;-64
2023/01/05 05:50:24;;;;;;;19.15;2.05;;;9.70;99.90;;;9.25;100.00;97990.22;5013011;28;20136;-64
2023/01/05 05:52:51;;;;;;;17.05;1.80;;;9.70;99.90;;;9.21;100.00;98022.28;5010707;28;20132;-64
2023/01/05 05:55:17;;;;;;;11.45;2.00;;;9.70;99.90;;;9.23;100.00;98017.09;5011809;28;20072;-65
2023/01/05 05:57:44;;;;;;;15.18;2.33;;;9.60;99.90;;;9.15;100.00;98007.81;5011547;28;20056;-65
2023/01/05 06:00:12;;;;;;;16.73;2.47;;;9.60;99.90;;;9.25;100.00;97997.16;5003830;28;20049;-65
2023/01/05 06:02:39;;;;;;;13.73;2.00;;;9.70;99.90;;;9.28;100.00;98023.81;5009601;28;20046;-64
2023/01/05 06:05:10;;;;;;;16.65;2.90;;;9.70;99.90;;;9.24;100.00;98036.91;5011599;28;20097;-64
2023/01/05 06:07:36;;;;;;;17.85;2.17;;;9.80;99.90;;;9.37;100.00;98031.31;5011066;28;20060;-65
2023/01/05 06:10:04;;;;;;;17.63;2.60;;;9.80;99.90;;;9.25;100.00;98048.97;5005385;28;20062;-65
2023/01/05 06:12:31;;;;;;;13.77;2.05;;;9.80;99.90;;;9.27;100.00;98049.78;5012462;28;20272;-64
2023/01/05 06:14:58;;;;;;;16.40;2.53;;;9.80;99.90;;;9.34;100.00;98036.59;5012151;28;20581;-64
2023/01/05 06:17:25;;;;;;;13.77;2.17;;;9.80;99.90;;;9.29;100.00;98045.41;5012552;28;20046;-64
2023/01/05 06:19:52;;;;;;;12.20;2.20;;;9.80;99.90;;;9.31;100.00;98049.63;5011629;28;20085;-64
2023/01/05 06:22:19;;;;;;;17.58;1.98;;;9.80;99.90;;;9.18;100.00;98072.44;5010840;28;20130;-64
2023/01/05 06:24:46;;;;;;;15.07;2.15;;;9.80;99.90;;;9.26;100.00;98054.13;5011228;28;20463;-64
2023/01/05 06:27:13;;;;;;;14.20;2.22;;;9.70;99.90;;;9.26;100.00;98066.19;5008445;28;21052;-64
2023/01/05 06:29:40;;;;;;;18.63;2.40;;;9.70;99.90;;;9.33;100.00;98065.16;5000043;28;20049;-64
2023/01/05 06:32:07;;;;;;;16.42;2.30;;;9.80;99.90;;;9.28;100.00;98057.47;5006050;28;20149;-64
2023/01/05 06:34:34;;;;;;;15.55;1.92;;;9.90;99.90;;;9.29;100.00;98081.66;5014040;28;20058;-64
2023/01/05 06:37:01;;;;;;;13.25;1.98;;;9.90;99.90;;;9.12;100.00;98097.69;5007181;28;20050;-64
2023/01/05 06:39:28;;;;;;;14.32;2.20;;;9.80;99.90;;;9.22;100.00;98078.41;5004447;28;20041;-64
2023/01/05 06:41:55;;;;;;;16.83;2.50;;;9.70;99.90;;;9.17;100.00;98060.41;5002829;28;20364;-64
2023/01/05 06:44:22;;;;;;;14.30;2.50;;;9.60;99.90;;;9.21;100.00;98072.38;5013464;28;20054;-64
2023/01/05 06:46:49;;;;;;;19.35;2.55;;;9.70;99.90;;;9.12;100.00;98074.38;5007352;28;20548;-64
2023/01/05 06:49:16;;;;;;;14.68;2.20;;;9.70;99.90;;;9.16;100.00;98074.22;5010449;28;20133;-64
2023/01/05 06:51:43;;;;;;;21.20;3.17;;;9.70;99.90;;;9.17;100.00;98070.78;5002294;28;20084;-64
2023/01/05 06:54:10;;;;;;;19.10;2.85;;;9.70;99.90;;;9.16;100.00;98086.34;5008691;28;20554;-64
2023/01/05 06:56:37;;;;;;;14.52;2.25;;;9.80;99.90;;;9.13;100.00;98086.44;5009483;28;20046;-64
2023/01/05 06:59:04;;;;;;;14.20;2.45;;;9.80;99.90;;;9.18;100.00;98080.22;5009949;28;20054;-64
2023/01/05 07:01:31;;;;;;;22.05;2.97;;;9.70;99.90;;;9.12;100.00;98082.13;5006679;28;20042;-64
2023/01/05 07:03:58;;;;;;;22.60;2.92;;;9.70;99.90;;;9.13;100.00;98076.09;5006905;28;20140;-65
2023/01/05 07:06:26;;;;;;;19.80;2.40;;;9.80;99.90;;;9.12;100.00;98084.72;5008955;28;20160;-64
2023/01/05 07:08:53;;;;;;;17.70;3.15;;;9.70;99.90;;;9.12;100.00;98090.78;5020617;28;20057;-65
2023/01/05 07:11:20;;;;;;;19.40;2.42;;;9.70;99.90;;;9.17;100.00;98083.72;5007880;28;20049;-64
2023/01/05 07:13:49;;;;;;;19.40;2.97;;;9.70;99.90;;;9.12;100.00;98108.91;5009486;28;20070;-64
2023/01/05 07:16:17;;;;;;;19.60;2.67;;;9.80;99.90;;;9.10;100.00;98086.50;5008814;28;20074;-64
2023/01/05 07:18:44;;;;;;;15.73;2.92;;;9.80;99.90;;;9.20;100.00;98083.63;5002527;28;20086;-64
2023/01/05 07:21:11;;;;;;;15.52;2.40;;;9.70;99.90;;;9.13;100.00;98094.22;5009383;28;20050;-64
2023/01/05 07:23:38;;;;;;;13.77;2.53;;;9.70;99.90;;;9.12;100.00;98084.72;5013575;28;20057;-64
2023/01/05 07:26:08;;;;;;;16.45;3.15;;;9.70;99.90;;;9.13;100.00;98084.69;5011728;28;20404;-65
2023/01/05 07:28:36;;;;;;;21.70;2.95;;;9.70;99.90;;;9.06;100.00;98090.09;5012751;28;20053;-64
2023/01/05 07:31:03;;;;;;;19.27;2.80;;;9.60;99.90;;;9.09;100.00;98092.59;5015584;28;20113;-64
2023/01/05 07:33:30;;;;;;;16.13;2.42;;;9.60;99.90;;;9.16;100.00;98094.97;5009535;28;20488;-64
2023/01/05 07:36:05;;;;;;;19.15;2.40;;;9.60;99.90;;;9.04;100.00;98097.06;5007487;28;20081;-64
2023/01/05 07:38:33;;;;;;;22.05;2.83;;;9.60;99.90;;;9.00;100.00;98093.69;5009297;28;20050;-64
2023/01/05 07:41:00;;;;;;;19.88;2.65;;;9.60;99.90;;;9.05;100.00;98096.16;5014283;28;20052;-64
2023/01/05 07:43:27;;;;;;;13.02;2.33;;;9.60;99.90;;;9.07;100.00;98091.78;5008251;28;20042;-66
2023/01/05 07:45:59;;;;;;;17.85;2.75;;;9.60;99.90;;;9.02;100.00;98110.03;5004336;28;20069;-64
2023/01/05 07:48:27;;;;;;;14.53;2.23;;;9.60;99.90;;;9.11;100.00;98094.25;5014204;28;20141;-63
2023/01/05 07:51:03;;;;;;;18.60;2.85;;;9.60;99.90;;;9.11;100.00;98108.94;5010349;28;20317;-64
2023/01/05 07:53:33;;;;;;;12.25;2.17;;;9.60;99.90;;;9.12;100.00;98116.69;5012675;28;20046;-64
2023/01/05 07:56:11;;;;;;;17.60;2.58;;;9.60;99.90;;;9.03;100.00;98122.09;5011390;28;20205;-64
2023/01/05 07:58:39;;;;;;;15.90;2.47;;;9.60;99.90;;;9.04;100.00;98130.72;5008968;28;20050;-64
2023/01/05 08:01:08;;;;;;;19.52;3.13;;;9.60;99.90;;;8.98;100.00;98135.16;5010985;28;20053;-64
2023/01/05 08:03:36;;;;;;;19.05;2.45;;;9.70;99.90;;;8.97;100.00;98122.28;5016843;28;20404;-64
2023/01/05 08:06:06;;;;;;;15.40;2.25;;;9.70;99.90;;;9.00;100.00;98137.72;5004633;28;20049;-64
2023/01/05 08:08:33;;;;;;;19.48;2.92;;;9.70;99.90;;;9.11;100.00;98134.84;5012590;28;20046;-64
2023/01/05 08:11:04;;;;;;;17.40;2.70;;;9.70;99.90;;;9.04;100.00;98135.91;5004993;28;20505;-64
2023/01/05 08:16:16;;;;;;;18.45;2.90;;;9.70;99.90;;;9.06;100.00;98144.47;5009834;28;20053;-65
2023/01/05 08:18:43;;;;;;;11.75;1.98;;;9.70;99.90;;;9.06;100.00;98144.47;5010138;28;20057;-64
2023/01/05 08:21:10;;;;;;;19.33;2.72;;;9.80;99.90;;;9.10;100.00;98138.31;4991980;28;20053;-65
2023/01/05 08:23:38;;;;;;;15.52;2.33;;;9.70;99.90;;;9.16;100.00;98154.53;5013716;28;20041;-64
2023/01/05 08:26:17;;;;;;;19.60;3.10;;;9.70;99.90;;;9.09;100.00;98165.94;5002101;28;20085;-64
2023/01/05 08:28:44;;;;;;;20.75;2.67;;;9.70;99.90;;;9.08;100.00;98151.31;5009443;28;20125;-65
2023/01/05 08:31:22;;;;;;;21.02;4.00;;;9.70;99.90;;;9.04;100.00;98154.88;5013559;28;20056;-64
2023/01/05 08:33:49;;;;;;;25.13;3.10;;;9.80;99.90;;;9.14;100.00;98160.63;5010707;28;20548;-64
2023/01/05 08:36:19;;;;;;;15.65;2.58;;;9.70;99.90;;;9.11;100.00;98165.91;5016225;28;20076;-64
2023/01/05 08:38:49;;;;;;;24.13;2.90;;;9.70;99.90;;;9.15;100.00;98167.53;5013766;28;20212;-64
2023/01/05 08:41:21;;;;;;;15.75;2.63;;;9.80;99.90;;;9.21;100.00;98178.59;5012742;28;20450;-64
2023/01/05 08:43:51;;;;;;;25.27;2.80;;;9.70;99.90;;;9.21;100.00;98186.34;5010222;28;20053;-64
2023/01/05 08:46:20;;;;;;;17.55;2.95;;;9.70;99.90;;;9.20;100.00;98178.63;5006579;28;21495;-65
2023/01/05 08:48:49;;;;;;;17.02;2.42;;;9.80;99.90;;;9.19;100.00;98171.72;5013298;28;20067;-65
2023/01/05 08:51:16;;;;;;;14.57;2.83;;;9.80;99.90;;;9.13;100.00;98179.69;5008834;28;20487;-65
2023/01/05 08:53:43;;;;;;;18.67;3.28;;;9.90;99.90;;;9.17;100.00;98166.59;5010192;28;20123;-65
2023/01/05 08:56:11;;;;;;;20.67;4.20;;;9.90;99.90;;;9.10;100.00;98170.25;5013192;28;20037;-65
2023/01/05 08:58:39;;;;;;;21.13;2.78;;;9.90;99.90;;;9.17;100.00;98169.19;5013568;28;20049;-65
2023/01/05 09:01:08;;;;;;;14.73;3.17;;;9.90;99.90;;;9.25;100.00;98165.53;5008698;28;20447;-64
2023/01/05 09:03:36;;;;;;;22.70;3.03;;;10.00;99.90;;;9.20;100.00;98174.28;5010961;28;20068;-64
2023/01/05 09:06:05;;;;;;;18.60;3.47;;;9.90;99.90;;;9.33;100.00;98172.22;5010031;28;20410;-65
2023/01/05 09:08:33;;;;;;;17.58;2.45;;;10.00;99.90;;;9.33;100.00;98184.31;5008146;28;20504;-65
2023/01/05 09:11:22;;;;;;;15.80;2.95;;;10.00;99.90;;;9.19;100.00;98184.66;5004378;28;20061;-65
2023/01/05 09:13:52;;;;;;;18.65;2.63;;;10.00;99.90;;;9.40;100.00;98168.53;5012329;28;20049;-64
2023/01/05 09:16:23;;;;;;;16.83;2.83;;;10.00;99.90;;;9.32;100.00;98180.00;5010277;28;20570;-64
2023/01/05 09:19:11;;;;;;;26.75;3.55;;;10.10;99.90;;;9.40;100.00;98170.28;5008325;28;20141;-64
2023/01/05 09:21:38;;;;;;;16.70;2.88;;;10.10;99.90;;;9.64;100.00;98176.50;5011657;28;20057;-65
2023/01/05 09:24:07;;;;;;;16.05;2.45;;;10.00;99.90;;;9.44;100.00;98187.44;5009365;28;20115;-64
2023/01/05 09:26:34;;;;;;;20.45;3.47;;;10.00;99.90;;;9.31;100.00;98189.53;5009077;28;20050;-64
2023/01/05 09:29:01;;;;;;;20.90;3.67;;;10.10;99.90;;;9.54;100.00;98178.50;5005857;28;20045;-63
2023/01/05 09:31:28;;;;;;;20.45;3.63;;;10.00;99.90;;;9.58;100.00;98181.88;5008673;28;20042;-65
2023/01/05 09:33:57;;;;;;;21.33;3.28;;;9.90;99.90;;;9.38;100.00;98201.41;5006717;28;20056;-65
2023/01/05 09:36:24;;;;;;;22.67;3.00;;;10.00;99.90;;;9.52;100.00;98197.59;5005950;28;20081;-63
2023/01/05 09:38:55;;;;;;;15.85;3.20;;;9.90;99.90;;;9.39;100.00;98207.44;5008870;28;20517;-65
2023/01/05 09:41:26;;;;;;;20.90;3.13;;;10.10;99.90;;;9.66;100.00;98202.38;5005160;28;20117;-65
2023/01/05 09:44:05;;;;;;;16.30;2.70;;;10.10;99.90;;;9.60;100.00;98201.66;5006194;28;20169;-65
2023/01/05 09:46:38;;;;;;;25.73;3.85;;;10.20;99.90;;;9.55;100.00;98200.09;5013558;28;20069;-64
2023/01/05 09:49:12;;;;;;;;;;;10.20;99.90;;;9.61;100.00;98203.34;5008158;28;20488;-65
2023/01/05 09:51:40;;;;;;;15.43;2.83;;;10.10;99.90;;;9.64;100.00;98200.66;5012864;28;19925;-65
2023/01/05 09:54:16;;;;;;;22.38;4.22;;;10.20;99.90;;;9.57;100.00;98206.91;5011781;28;20042;-65
2023/01/05 09:56:45;;;;;;;17.75;3.65;;;10.30;99.90;;;9.77;100.00;98206.34;5004305;28;20049;-65
2023/01/05 09:59:41;;;;;;;17.23;3.70;;;10.40;99.90;;;9.86;100.00;98201.81;4997848;28;20539;-65
2023/01/05 10:02:20;;;;;;;21.33;3.17;;;10.40;99.90;;;9.73;100.00;98207.34;5007446;28;20133;-65
2023/01/05 10:04:48;;;;;;;25.33;3.55;;;10.50;99.90;;;9.79;100.00;98199.38;5000512;28;20203;-65
2023/01/05 10:07:46;;;;;;;18.55;3.20;;;10.60;99.90;;;9.89;100.00;98209.47;5003164;28;20062;-65
2023/01/05 10:10:44;;;;;;;22.52;3.72;;;10.60;99.90;;;9.73;100.00;98209.09;4990437;28;20138;-73
2023/01/05 10:13:25;;;;;;;23.95;3.53;;;10.60;99.90;;;9.49;100.00;98208.91;5004594;28;20045;-72
2023/01/05 10:15:54;;;;;;;22.98;3.33;;;10.60;99.90;;;9.80;100.00;98213.19;4989083;28;20564;-72
2023/01/05 10:18:25;;;;;;;21.83;3.88;;;10.50;99.90;;;9.61;100.00;98211.13;4987475;28;20054;-72
2023/01/05 10:21:29;;;;;;;19.50;2.47;;;10.50;99.90;;;9.55;100.00;98236.38;4988586;28;20461;-72
2023/01/05 10:24:22;;;;;;;25.52;3.00;;;10.50;99.90;;;9.60;100.00;98218.94;5008689;28;20045;-72
2023/01/05 10:27:06;;;;;;;21.52;3.40;;;10.40;99.90;;;9.69;100.00;98212.66;5016278;28;20176;-72
2023/01/05 10:30:24;;;;;;;20.48;2.72;;;10.30;99.90;;;9.65;100.00;98217.09;5009339;28;20707;-72
2023/01/05 10:33:01;;;;;;;17.58;3.38;;;10.20;99.90;;;9.66;100.00;98212.75;4979331;28;20060;-72
2023/01/05 10:36:29;;;;;;;18.75;2.78;;;10.20;99.90;;;9.55;100.00;98221.66;5015632;28;20116;-72
2023/01/05 10:39:26;;;;;;;22.63;3.55;;;10.20;99.90;;;9.67;100.00;98206.66;5008841;28;20049;-65
2023/01/05 10:42:22;;;;;;;28.92;3.63;;;10.20;99.90;;;9.61;100.00;98236.22;5013289;28;20058;-65
2023/01/05 10:44:51;;;;;;;19.02;3.28;;;10.20;99.90;;;9.56;100.00;98235.50;5007304;28;20045;-65
2023/01/05 10:47:21;;;;;;;24.63;3.30;;;10.30;99.90;;;9.62;100.00;98231.00;5007911;28;20069;-65
2023/01/05 10:49:49;;;;;;;18.55;3.65;;;10.40;99.90;;;9.79;100.00;98214.09;5008558;28;20097;-65
2023/01/05 10:52:20;;;;;;;21.23;3.90;;;10.40;99.90;;;9.87;100.00;98213.88;4995650;28;20088;-65
2023/01/05 10:54:56;;;;;;;26.15;3.30;;;10.50;99.90;;;9.79;100.00;98214.94;5003011;28;20089;-65
2023/01/05 10:57:33;;;;;;;16.13;2.75;;;10.40;99.90;;;9.84;100.00;98205.28;5009454;28;20216;-65
2023/01/05 11:00:17;;;;;;;24.25;3.78;;;10.40;99.90;;;9.75;100.00;98208.13;5005667;28;20524;-64
2023/01/05 11:02:56;;;;;;;20.27;4.32;;;10.40;99.90;;;9.77;100.00;98221.06;5002972;28;20078;-64
2023/01/05 11:05:41;;;;;;;27.02;3.75;;;10.60;99.90;;;10.00;100.00;98203.06;5012305;28;20045;-64
2023/01/05 11:08:21;;;;;;;22.65;4.18;;;10.70;99.90;;;10.07;100.00;98203.75;5008299;28;20137;-65
2023/01/05 11:11:04;;;;;;;21.25;3.65;;;10.80;99.90;;;10.15;100.00;98206.97;5009201;28;20049;-65